Scribner, Nebraska
Current Conditions -  °F | °C
As of 6:55 PM on Friday 19 Dec 2014 (Local Time) from KFET Reporting Station
Overcast Overcast  
Wind Chill: 28°   Ceiling: 1400
Heat Index: 34°   Visibility: 10mi
Dew Point: 30°   Wind: 7mph
Humidity: 86%   Direction: 170°S
Pressure: 30.13"   Gusts: NA
Location:  41.67°N, 96.67°W
Report Text: KFET 200055Z AUTO 17006KT 10SM OVC014 01/M01 A3013 RMK AO2 T00121009
Loading
Personal Weather Stations






























Interactive Weather Map New forecast layout! Learn more

10-Day Weather Forecast

Advertisements
Track Severe Weather on mobile